Impacts METAR Board INFO
IDs:

KDTW - Detroit Metro/Wayne, MI, US

Updated at: 0330 UTC 13 Dec 2017
Potential Impact None Slight Moderate High
Time12/15Z 12/16Z 12/17Z 12/18Z 12/19Z 12/20Z 12/21Z 12/22Z 12/23Z 13/00Z 13/01Z 13/02Z 13/03Z
VIS10 10 4 9 10 10 10 10 10 10 10 10 10
CIG45 50 50 55 60 60 55 55 60 60 60 60 55
CoverBKNBKNBKNBKNBKNBKNBKNBKNBKNBKNBKNBKNBKN
FltCatVFRVFRMVFRVFRVFRVFRVFRVFRVFRVFRVFRVFRVFR
WX-----SN--------------------
WDir310320320300320310320310310300300270270
WSpd15 14 14 14 17 16 18 11 11 9 10 8 7
WGst21 -- 21 22 27 29 23 -- -- -- -- -- --
Raw hourly METARs
KDTW 121453Z 31015G21KT 10SM FEW035 BKN045 M06/M13 A2985 RMK AO2 SLP118 60000 T10611133 51020 $
KDTW 121553Z 32014KT 10SM SCT040 BKN050 M06/M13 A2986 RMK AO2 SLP120 T10611133 $
KDTW 121653Z 32014G21KT 4SM -SN FEW040 BKN050 M07/M13 A2986 RMK AO2 SNB42 SLP120 P0000 T10671133 $
KDTW 121753Z 30014G22KT 9SM SCT045 BKN055 M07/M15 A2985 RMK AO2 SNE05 SLP116 P0000 60000 T10671150 11044 21067 58002 $
KDTW 121853Z 32017G27KT 10SM SCT050 BKN060 M06/M16 A2985 RMK AO2 PK WND 31030/1840 SLP115 T10611156 $
KDTW 121953Z 31016G29KT 10SM SCT050 BKN060 M07/M16 A2986 RMK AO2 PK WND 34029/1947 SLP119 T10671156
KDTW 122053Z 32018G23KT 10SM BKN055 M07/M16 A2986 RMK AO2 PK WND 30026/2001 SLP121 T10671156 53005
KDTW 122153Z 31011KT 10SM BKN055 M07/M16 A2987 RMK AO2 PK WND 31026/2124 SLP125 T10721161
KDTW 122253Z 31011KT 10SM SCT045 BKN060 M07/M16 A2989 RMK AO2 SLP132 T10721156
KDTW 122353Z 30009KT 10SM BKN060 M08/M15 A2991 RMK AO2 SLP136 T10781150 11056 21078 53014
KDTW 130053Z 30010KT 10SM BKN060 M08/M15 A2991 RMK AO2 SLP139 T10781150
KDTW 130153Z 27008KT 10SM BKN060 M08/M14 A2990 RMK AO2 SLP136 T10831139
KDTW 130253Z 27007KT 10SM BKN055 M08/M13 A2990 RMK AO2 SLP134 T10831133 58003